sensor_id;sensor_type;location;lat;lon;timestamp;P1;durP1;ratioP1;P2;durP2;ratioP2
8421;SDS011;4248;48.196;10.924;2022-08-18T00:00:47;10.17;;;7.17;;
8421;SDS011;4248;48.196;10.924;2022-08-18T00:03:13;11.90;;;8.30;;
8421;SDS011;4248;48.196;10.924;2022-08-18T00:05:39;18.53;;;8.83;;
8421;SDS011;4248;48.196;10.924;2022-08-18T00:08:05;11.90;;;7.83;;
8421;SDS011;4248;48.196;10.924;2022-08-18T00:10:30;12.73;;;7.53;;
8421;SDS011;4248;48.196;10.924;2022-08-18T00:12:57;10.40;;;7.40;;
8421;SDS011;4248;48.196;10.924;2022-08-18T00:15:23;12.10;;;8.00;;
8421;SDS011;4248;48.196;10.924;2022-08-18T00:17:49;10.37;;;7.63;;
8421;SDS011;4248;48.196;10.924;2022-08-18T00:20:18;12.57;;;7.40;;
8421;SDS011;4248;48.196;10.924;2022-08-18T00:22:46;12.00;;;7.90;;
8421;SDS011;4248;48.196;10.924;2022-08-18T00:25:13;9.13;;;7.40;;
8421;SDS011;4248;48.196;10.924;2022-08-18T00:27:39;10.20;;;6.73;;
8421;SDS011;4248;48.196;10.924;2022-08-18T00:30:07;12.30;;;7.60;;
8421;SDS011;4248;48.196;10.924;2022-08-18T00:32:39;15.10;;;7.27;;
8421;SDS011;4248;48.196;10.924;2022-08-18T00:35:08;10.80;;;7.60;;
8421;SDS011;4248;48.196;10.924;2022-08-18T00:37:34;9.80;;;7.30;;
8421;SDS011;4248;48.196;10.924;2022-08-18T00:40:00;9.63;;;7.30;;
8421;SDS011;4248;48.196;10.924;2022-08-18T00:42:27;11.90;;;8.20;;
8421;SDS011;4248;48.196;10.924;2022-08-18T00:44:54;11.40;;;8.23;;
8421;SDS011;4248;48.196;10.924;2022-08-18T00:47:20;15.27;;;7.57;;
8421;SDS011;4248;48.196;10.924;2022-08-18T00:49:46;11.20;;;7.23;;
8421;SDS011;4248;48.196;10.924;2022-08-18T00:52:15;11.10;;;7.73;;
8421;SDS011;4248;48.196;10.924;2022-08-18T00:54:41;11.73;;;7.27;;
8421;SDS011;4248;48.196;10.924;2022-08-18T00:57:09;12.83;;;8.40;;
8421;SDS011;4248;48.196;10.924;2022-08-18T00:59:38;10.63;;;7.63;;
8421;SDS011;4248;48.196;10.924;2022-08-18T01:02:34;15.40;;;9.03;;
8421;SDS011;4248;48.196;10.924;2022-08-18T01:05:06;10.37;;;7.03;;
8421;SDS011;4248;48.196;10.924;2022-08-18T01:07:39;12.90;;;8.33;;
8421;SDS011;4248;48.196;10.924;2022-08-18T01:10:10;10.50;;;7.93;;
8421;SDS011;4248;48.196;10.924;2022-08-18T01:12:40;12.13;;;8.97;;
8421;SDS011;4248;48.196;10.924;2022-08-18T01:15:11;13.03;;;9.20;;
8421;SDS011;4248;48.196;10.924;2022-08-18T01:17:38;11.27;;;8.03;;
8421;SDS011;4248;48.196;10.924;2022-08-18T01:23:26;11.40;;;9.00;;
8421;SDS011;4248;48.196;10.924;2022-08-18T01:25:53;13.03;;;8.80;;
8421;SDS011;4248;48.196;10.924;2022-08-18T01:28:43;17.53;;;10.03;;
8421;SDS011;4248;48.196;10.924;2022-08-18T01:31:11;11.10;;;8.87;;
8421;SDS011;4248;48.196;10.924;2022-08-18T01:33:52;14.77;;;9.83;;
8421;SDS011;4248;48.196;10.924;2022-08-18T01:36:19;13.27;;;8.80;;
8421;SDS011;4248;48.196;10.924;2022-08-18T01:38:47;12.53;;;8.90;;
8421;SDS011;4248;48.196;10.924;2022-08-18T01:41:15;13.97;;;9.87;;
8421;SDS011;4248;48.196;10.924;2022-08-18T01:43:43;13.03;;;8.40;;
8421;SDS011;4248;48.196;10.924;2022-08-18T01:46:09;12.87;;;9.03;;
8421;SDS011;4248;48.196;10.924;2022-08-18T01:48:35;15.90;;;10.33;;
8421;SDS011;4248;48.196;10.924;2022-08-18T01:51:02;14.37;;;9.90;;
8421;SDS011;4248;48.196;10.924;2022-08-18T01:53:33;14.97;;;9.00;;
8421;SDS011;4248;48.196;10.924;2022-08-18T01:55:59;14.23;;;10.23;;
8421;SDS011;4248;48.196;10.924;2022-08-18T01:58:29;14.20;;;9.20;;
8421;SDS011;4248;48.196;10.924;2022-08-18T02:00:56;13.67;;;9.40;;
8421;SDS011;4248;48.196;10.924;2022-08-18T02:03:27;14.00;;;9.33;;
8421;SDS011;4248;48.196;10.924;2022-08-18T02:06:02;12.63;;;10.17;;
8421;SDS011;4248;48.196;10.924;2022-08-18T02:08:28;12.13;;;8.30;;
8421;SDS011;4248;48.196;10.924;2022-08-18T02:10:54;16.37;;;9.67;;
8421;SDS011;4248;48.196;10.924;2022-08-18T02:13:22;14.03;;;9.73;;
8421;SDS011;4248;48.196;10.924;2022-08-18T02:15:49;14.00;;;8.70;;
8421;SDS011;4248;48.196;10.924;2022-08-18T02:18:15;16.13;;;8.57;;
8421;SDS011;4248;48.196;10.924;2022-08-18T02:20:42;12.23;;;8.80;;
8421;SDS011;4248;48.196;10.924;2022-08-18T02:23:09;12.87;;;8.70;;
8421;SDS011;4248;48.196;10.924;2022-08-18T02:25:35;16.10;;;9.23;;
8421;SDS011;4248;48.196;10.924;2022-08-18T02:28:00;14.00;;;8.83;;
8421;SDS011;4248;48.196;10.924;2022-08-18T02:30:27;12.03;;;8.07;;
8421;SDS011;4248;48.196;10.924;2022-08-18T02:32:52;12.83;;;7.67;;
8421;SDS011;4248;48.196;10.924;2022-08-18T02:35:18;12.50;;;8.97;;
8421;SDS011;4248;48.196;10.924;2022-08-18T02:37:43;12.27;;;8.70;;
8421;SDS011;4248;48.196;10.924;2022-08-18T02:40:12;10.63;;;7.80;;
8421;SDS011;4248;48.196;10.924;2022-08-18T02:42:39;11.90;;;7.30;;
8421;SDS011;4248;48.196;10.924;2022-08-18T02:45:05;12.70;;;8.63;;
8421;SDS011;4248;48.196;10.924;2022-08-18T02:47:32;12.53;;;8.03;;
8421;SDS011;4248;48.196;10.924;2022-08-18T02:49:57;12.33;;;8.80;;
8421;SDS011;4248;48.196;10.924;2022-08-18T02:52:23;12.53;;;8.37;;
8421;SDS011;4248;48.196;10.924;2022-08-18T02:54:56;11.57;;;8.23;;
8421;SDS011;4248;48.196;10.924;2022-08-18T02:57:25;12.43;;;7.93;;
8421;SDS011;4248;48.196;10.924;2022-08-18T02:59:50;11.13;;;9.03;;
8421;SDS011;4248;48.196;10.924;2022-08-18T03:02:16;14.43;;;9.50;;
8421;SDS011;4248;48.196;10.924;2022-08-18T03:04:42;11.70;;;9.17;;
8421;SDS011;4248;48.196;10.924;2022-08-18T03:07:08;18.53;;;9.90;;
8421;SDS011;4248;48.196;10.924;2022-08-18T03:09:33;10.80;;;8.97;;
8421;SDS011;4248;48.196;10.924;2022-08-18T03:12:00;17.13;;;9.40;;
8421;SDS011;4248;48.196;10.924;2022-08-18T03:14:26;14.07;;;9.00;;
8421;SDS011;4248;48.196;10.924;2022-08-18T03:16:53;13.27;;;8.93;;
8421;SDS011;4248;48.196;10.924;2022-08-18T03:19:18;13.07;;;9.23;;
8421;SDS011;4248;48.196;10.924;2022-08-18T03:21:45;13.67;;;9.70;;
8421;SDS011;4248;48.196;10.924;2022-08-18T03:24:12;14.30;;;9.40;;
8421;SDS011;4248;48.196;10.924;2022-08-18T03:26:41;14.63;;;9.20;;
8421;SDS011;4248;48.196;10.924;2022-08-18T03:29:11;13.10;;;8.80;;
8421;SDS011;4248;48.196;10.924;2022-08-18T03:31:38;12.60;;;8.90;;
8421;SDS011;4248;48.196;10.924;2022-08-18T03:34:07;12.70;;;9.67;;
8421;SDS011;4248;48.196;10.924;2022-08-18T03:36:34;18.50;;;8.87;;
8421;SDS011;4248;48.196;10.924;2022-08-18T03:39:02;19.33;;;8.87;;
8421;SDS011;4248;48.196;10.924;2022-08-18T03:41:30;11.07;;;7.67;;
8421;SDS011;4248;48.196;10.924;2022-08-18T03:43:56;25.27;;;9.50;;
8421;SDS011;4248;48.196;10.924;2022-08-18T03:46:22;18.60;;;12.00;;
8421;SDS011;4248;48.196;10.924;2022-08-18T03:48:48;16.90;;;9.53;;
8421;SDS011;4248;48.196;10.924;2022-08-18T03:53:43;13.70;;;9.50;;
8421;SDS011;4248;48.196;10.924;2022-08-18T03:56:10;13.97;;;9.50;;
8421;SDS011;4248;48.196;10.924;2022-08-18T03:58:47;15.10;;;9.97;;
8421;SDS011;4248;48.196;10.924;2022-08-18T04:01:17;13.23;;;8.93;;
8421;SDS011;4248;48.196;10.924;2022-08-18T04:03:45;13.67;;;9.73;;
8421;SDS011;4248;48.196;10.924;2022-08-18T04:06:16;12.70;;;9.43;;
8421;SDS011;4248;48.196;10.924;2022-08-18T04:08:44;16.93;;;9.63;;
8421;SDS011;4248;48.196;10.924;2022-08-18T04:11:10;22.53;;;10.40;;
8421;SDS011;4248;48.196;10.924;2022-08-18T04:13:38;12.40;;;9.20;;
8421;SDS011;4248;48.196;10.924;2022-08-18T04:16:04;13.90;;;10.10;;
8421;SDS011;4248;48.196;10.924;2022-08-18T04:18:30;18.20;;;10.90;;
8421;SDS011;4248;48.196;10.924;2022-08-18T04:21:00;18.80;;;10.47;;
8421;SDS011;4248;48.196;10.924;2022-08-18T04:23:32;16.80;;;12.27;;
8421;SDS011;4248;48.196;10.924;2022-08-18T04:25:58;14.73;;;10.90;;
8421;SDS011;4248;48.196;10.924;2022-08-18T04:28:25;16.67;;;10.97;;
8421;SDS011;4248;48.196;10.924;2022-08-18T04:30:52;14.30;;;10.93;;
8421;SDS011;4248;48.196;10.924;2022-08-18T04:33:18;18.17;;;10.37;;
8421;SDS011;4248;48.196;10.924;2022-08-18T04:35:44;13.63;;;9.83;;
8421;SDS011;4248;48.196;10.924;2022-08-18T04:38:10;14.80;;;10.03;;
8421;SDS011;4248;48.196;10.924;2022-08-18T04:40:37;17.00;;;11.13;;
8421;SDS011;4248;48.196;10.924;2022-08-18T04:43:02;15.20;;;9.70;;
8421;SDS011;4248;48.196;10.924;2022-08-18T04:45:28;17.80;;;10.70;;
8421;SDS011;4248;48.196;10.924;2022-08-18T04:47:54;19.90;;;11.20;;
8421;SDS011;4248;48.196;10.924;2022-08-18T04:50:20;15.90;;;11.03;;
8421;SDS011;4248;48.196;10.924;2022-08-18T04:52:46;16.43;;;9.60;;
8421;SDS011;4248;48.196;10.924;2022-08-18T04:55:30;15.83;;;9.40;;
8421;SDS011;4248;48.196;10.924;2022-08-18T04:57:55;15.00;;;9.67;;
8421;SDS011;4248;48.196;10.924;2022-08-18T05:00:23;18.20;;;9.60;;
8421;SDS011;4248;48.196;10.924;2022-08-18T05:02:48;11.07;;;8.37;;
8421;SDS011;4248;48.196;10.924;2022-08-18T05:05:14;14.87;;;10.40;;
8421;SDS011;4248;48.196;10.924;2022-08-18T05:07:44;14.50;;;8.50;;
8421;SDS011;4248;48.196;10.924;2022-08-18T05:10:10;15.20;;;9.13;;
8421;SDS011;4248;48.196;10.924;2022-08-18T05:12:36;11.73;;;8.90;;
8421;SDS011;4248;48.196;10.924;2022-08-18T05:15:06;17.50;;;10.33;;
8421;SDS011;4248;48.196;10.924;2022-08-18T05:17:35;16.23;;;10.10;;
8421;SDS011;4248;48.196;10.924;2022-08-18T05:20:04;13.53;;;10.47;;
8421;SDS011;4248;48.196;10.924;2022-08-18T05:22:35;16.20;;;9.67;;
8421;SDS011;4248;48.196;10.924;2022-08-18T05:25:10;13.17;;;9.90;;
8421;SDS011;4248;48.196;10.924;2022-08-18T05:27:38;12.20;;;9.70;;
8421;SDS011;4248;48.196;10.924;2022-08-18T05:30:06;13.40;;;9.70;;
8421;SDS011;4248;48.196;10.924;2022-08-18T05:32:33;13.43;;;9.03;;
8421;SDS011;4248;48.196;10.924;2022-08-18T05:35:07;12.27;;;9.37;;
8421;SDS011;4248;48.196;10.924;2022-08-18T05:40:30;13.50;;;10.17;;
8421;SDS011;4248;48.196;10.924;2022-08-18T05:42:56;13.67;;;9.37;;
8421;SDS011;4248;48.196;10.924;2022-08-18T05:45:23;12.27;;;9.17;;
8421;SDS011;4248;48.196;10.924;2022-08-18T05:47:50;11.60;;;8.90;;
8421;SDS011;4248;48.196;10.924;2022-08-18T05:50:17;14.10;;;9.77;;
8421;SDS011;4248;48.196;10.924;2022-08-18T05:55:23;15.13;;;9.53;;
8421;SDS011;4248;48.196;10.924;2022-08-18T05:58:20;15.17;;;9.63;;
8421;SDS011;4248;48.196;10.924;2022-08-18T06:01:04;14.90;;;10.00;;
8421;SDS011;4248;48.196;10.924;2022-08-18T06:03:39;15.80;;;10.70;;
8421;SDS011;4248;48.196;10.924;2022-08-18T06:06:12;14.17;;;10.20;;
8421;SDS011;4248;48.196;10.924;2022-08-18T06:08:45;13.80;;;10.40;;
8421;SDS011;4248;48.196;10.924;2022-08-18T06:11:17;14.30;;;9.93;;
8421;SDS011;4248;48.196;10.924;2022-08-18T06:13:42;12.67;;;10.00;;
8421;SDS011;4248;48.196;10.924;2022-08-18T06:16:11;14.60;;;9.20;;
8421;SDS011;4248;48.196;10.924;2022-08-18T06:18:55;13.47;;;10.30;;
8421;SDS011;4248;48.196;10.924;2022-08-18T06:27:30;14.10;;;9.33;;
8421;SDS011;4248;48.196;10.924;2022-08-18T06:30:16;15.30;;;9.53;;
8421;SDS011;4248;48.196;10.924;2022-08-18T06:35:35;11.13;;;8.43;;
8421;SDS011;4248;48.196;10.924;2022-08-18T06:38:08;12.10;;;8.87;;
8421;SDS011;4248;48.196;10.924;2022-08-18T06:43:38;12.30;;;9.30;;
8421;SDS011;4248;48.196;10.924;2022-08-18T06:46:29;15.60;;;9.70;;
8421;SDS011;4248;48.196;10.924;2022-08-18T06:49:07;11.80;;;8.87;;
8421;SDS011;4248;48.196;10.924;2022-08-18T06:51:36;11.07;;;8.30;;
8421;SDS011;4248;48.196;10.924;2022-08-18T06:54:03;14.80;;;8.50;;
8421;SDS011;4248;48.196;10.924;2022-08-18T06:56:51;11.70;;;9.30;;
8421;SDS011;4248;48.196;10.924;2022-08-18T06:59:26;11.80;;;9.37;;
8421;SDS011;4248;48.196;10.924;2022-08-18T07:01:58;13.17;;;9.20;;
8421;SDS011;4248;48.196;10.924;2022-08-18T07:04:57;9.70;;;6.87;;
8421;SDS011;4248;48.196;10.924;2022-08-18T07:10:49;11.07;;;7.70;;
8421;SDS011;4248;48.196;10.924;2022-08-18T07:15:44;8.87;;;6.77;;
8421;SDS011;4248;48.196;10.924;2022-08-18T07:18:12;11.93;;;7.60;;
8421;SDS011;4248;48.196;10.924;2022-08-18T07:20:45;10.43;;;7.17;;
8421;SDS011;4248;48.196;10.924;2022-08-18T07:23:30;10.97;;;7.70;;
8421;SDS011;4248;48.196;10.924;2022-08-18T07:26:11;9.60;;;7.40;;
8421;SDS011;4248;48.196;10.924;2022-08-18T07:28:40;9.13;;;6.73;;
8421;SDS011;4248;48.196;10.924;2022-08-18T07:33:51;13.07;;;6.90;;
8421;SDS011;4248;48.196;10.924;2022-08-18T07:36:27;8.87;;;6.53;;
8421;SDS011;4248;48.196;10.924;2022-08-18T07:39:05;13.47;;;8.53;;
8421;SDS011;4248;48.196;10.924;2022-08-18T07:41:41;10.70;;;7.27;;
8421;SDS011;4248;48.196;10.924;2022-08-18T07:44:15;12.17;;;7.30;;
8421;SDS011;4248;48.196;10.924;2022-08-18T07:47:00;12.97;;;7.00;;
8421;SDS011;4248;48.196;10.924;2022-08-18T07:49:31;11.63;;;7.27;;
8421;SDS011;4248;48.196;10.924;2022-08-18T07:52:19;9.73;;;7.20;;
8421;SDS011;4248;48.196;10.924;2022-08-18T07:55:10;12.03;;;6.97;;
8421;SDS011;4248;48.196;10.924;2022-08-18T08:00:32;8.90;;;6.83;;
8421;SDS011;4248;48.196;10.924;2022-08-18T08:03:19;8.53;;;6.63;;
8421;SDS011;4248;48.196;10.924;2022-08-18T08:06:08;9.53;;;6.90;;
8421;SDS011;4248;48.196;10.924;2022-08-18T08:12:03;9.10;;;5.60;;
8421;SDS011;4248;48.196;10.924;2022-08-18T08:14:46;8.23;;;6.17;;
8421;SDS011;4248;48.196;10.924;2022-08-18T08:20:28;7.70;;;5.43;;
8421;SDS011;4248;48.196;10.924;2022-08-18T08:27:54;9.07;;;6.00;;
8421;SDS011;4248;48.196;10.924;2022-08-18T08:30:27;10.07;;;6.33;;
8421;SDS011;4248;48.196;10.924;2022-08-18T08:32:59;9.97;;;7.53;;
8421;SDS011;4248;48.196;10.924;2022-08-18T08:35:47;9.93;;;6.53;;
8421;SDS011;4248;48.196;10.924;2022-08-18T08:38:23;11.13;;;6.57;;
8421;SDS011;4248;48.196;10.924;2022-08-18T08:44:02;7.70;;;5.70;;
8421;SDS011;4248;48.196;10.924;2022-08-18T08:46:56;11.23;;;7.23;;
8421;SDS011;4248;48.196;10.924;2022-08-18T08:51:54;9.07;;;6.90;;
8421;SDS011;4248;48.196;10.924;2022-08-18T08:54:35;9.43;;;7.30;;
8421;SDS011;4248;48.196;10.924;2022-08-18T08:57:02;12.80;;;7.20;;
8421;SDS011;4248;48.196;10.924;2022-08-18T08:59:29;9.13;;;6.87;;
8421;SDS011;4248;48.196;10.924;2022-08-18T09:10:29;8.23;;;6.27;;
8421;SDS011;4248;48.196;10.924;2022-08-18T09:37:56;9.03;;;5.90;;
8421;SDS011;4248;48.196;10.924;2022-08-18T09:40:52;10.03;;;6.70;;
8421;SDS011;4248;48.196;10.924;2022-08-18T09:51:50;15.80;;;8.80;;
8421;SDS011;4248;48.196;10.924;2022-08-18T09:54:21;11.10;;;8.50;;
8421;SDS011;4248;48.196;10.924;2022-08-18T10:02:02;12.07;;;7.90;;
8421;SDS011;4248;48.196;10.924;2022-08-18T10:04:47;11.00;;;7.67;;
8421;SDS011;4248;48.196;10.924;2022-08-18T10:15:34;13.27;;;10.73;;
8421;SDS011;4248;48.196;10.924;2022-08-18T10:21:59;12.53;;;8.90;;
8421;SDS011;4248;48.196;10.924;2022-08-18T10:24:45;11.53;;;8.37;;
8421;SDS011;4248;48.196;10.924;2022-08-18T10:27:33;10.03;;;7.77;;
8421;SDS011;4248;48.196;10.924;2022-08-18T10:33:02;11.00;;;8.17;;
8421;SDS011;4248;48.196;10.924;2022-08-18T10:38:12;10.17;;;7.13;;
8421;SDS011;4248;48.196;10.924;2022-08-18T10:40:42;14.80;;;9.40;;
8421;SDS011;4248;48.196;10.924;2022-08-18T10:43:39;13.37;;;8.20;;
8421;SDS011;4248;48.196;10.924;2022-08-18T10:46:17;10.30;;;7.43;;
8421;SDS011;4248;48.196;10.924;2022-08-18T10:51:40;10.70;;;8.67;;
8421;SDS011;4248;48.196;10.924;2022-08-18T11:03:15;10.60;;;7.43;;
8421;SDS011;4248;48.196;10.924;2022-08-18T11:06:00;14.13;;;7.87;;
8421;SDS011;4248;48.196;10.924;2022-08-18T11:08:28;14.93;;;7.40;;
8421;SDS011;4248;48.196;10.924;2022-08-18T11:11:07;9.30;;;7.07;;
8421;SDS011;4248;48.196;10.924;2022-08-18T11:13:48;9.00;;;6.90;;
8421;SDS011;4248;48.196;10.924;2022-08-18T11:19:05;13.10;;;7.70;;
8421;SDS011;4248;48.196;10.924;2022-08-18T11:21:40;9.97;;;6.93;;
8421;SDS011;4248;48.196;10.924;2022-08-18T11:26:43;11.23;;;7.33;;
8421;SDS011;4248;48.196;10.924;2022-08-18T11:29:15;14.00;;;8.83;;
8421;SDS011;4248;48.196;10.924;2022-08-18T11:32:15;12.27;;;8.00;;
8421;SDS011;4248;48.196;10.924;2022-08-18T11:34:45;11.00;;;7.60;;
8421;SDS011;4248;48.196;10.924;2022-08-18T11:40:28;9.40;;;7.97;;
8421;SDS011;4248;48.196;10.924;2022-08-18T11:43:29;9.93;;;8.13;;
8421;SDS011;4248;48.196;10.924;2022-08-18T11:45:52;12.17;;;8.87;;
8421;SDS011;4248;48.196;10.924;2022-08-18T11:54:02;17.60;;;10.90;;
8421;SDS011;4248;48.196;10.924;2022-08-18T11:56:45;12.27;;;9.70;;
8421;SDS011;4248;48.196;10.924;2022-08-18T12:01:50;16.60;;;10.77;;
8421;SDS011;4248;48.196;10.924;2022-08-18T12:07:02;10.97;;;8.30;;
8421;SDS011;4248;48.196;10.924;2022-08-18T12:09:44;10.57;;;7.70;;
8421;SDS011;4248;48.196;10.924;2022-08-18T12:12:16;11.87;;;9.00;;
8421;SDS011;4248;48.196;10.924;2022-08-18T12:17:17;12.53;;;8.20;;
8421;SDS011;4248;48.196;10.924;2022-08-18T12:19:43;16.40;;;9.97;;
8421;SDS011;4248;48.196;10.924;2022-08-18T12:22:17;21.23;;;9.90;;
8421;SDS011;4248;48.196;10.924;2022-08-18T12:24:44;14.70;;;9.60;;
8421;SDS011;4248;48.196;10.924;2022-08-18T12:27:12;14.50;;;9.73;;
8421;SDS011;4248;48.196;10.924;2022-08-18T12:29:42;12.00;;;9.10;;
8421;SDS011;4248;48.196;10.924;2022-08-18T12:32:07;10.10;;;7.63;;
8421;SDS011;4248;48.196;10.924;2022-08-18T12:34:34;14.57;;;8.27;;
8421;SDS011;4248;48.196;10.924;2022-08-18T12:36:59;18.70;;;9.43;;
8421;SDS011;4248;48.196;10.924;2022-08-18T12:39:26;13.97;;;9.13;;
8421;SDS011;4248;48.196;10.924;2022-08-18T12:41:53;13.47;;;9.30;;
8421;SDS011;4248;48.196;10.924;2022-08-18T12:44:19;12.17;;;8.60;;
8421;SDS011;4248;48.196;10.924;2022-08-18T12:46:45;14.33;;;9.60;;
8421;SDS011;4248;48.196;10.924;2022-08-18T12:49:15;16.87;;;11.13;;
8421;SDS011;4248;48.196;10.924;2022-08-18T12:51:45;13.37;;;9.17;;
8421;SDS011;4248;48.196;10.924;2022-08-18T12:54:12;11.50;;;9.47;;
8421;SDS011;4248;48.196;10.924;2022-08-18T12:56:38;12.90;;;8.83;;
8421;SDS011;4248;48.196;10.924;2022-08-18T12:59:05;16.57;;;8.40;;
8421;SDS011;4248;48.196;10.924;2022-08-18T13:01:33;14.40;;;7.93;;
8421;SDS011;4248;48.196;10.924;2022-08-18T13:03:59;12.07;;;9.07;;
8421;SDS011;4248;48.196;10.924;2022-08-18T13:06:25;13.30;;;8.50;;
8421;SDS011;4248;48.196;10.924;2022-08-18T13:08:51;14.27;;;11.00;;
8421;SDS011;4248;48.196;10.924;2022-08-18T13:11:19;10.60;;;8.90;;
8421;SDS011;4248;48.196;10.924;2022-08-18T13:13:46;11.20;;;8.10;;
8421;SDS011;4248;48.196;10.924;2022-08-18T13:16:12;10.47;;;7.37;;
8421;SDS011;4248;48.196;10.924;2022-08-18T13:18:38;17.00;;;9.27;;
8421;SDS011;4248;48.196;10.924;2022-08-18T13:21:05;11.63;;;7.93;;
8421;SDS011;4248;48.196;10.924;2022-08-18T13:23:32;13.27;;;9.63;;
8421;SDS011;4248;48.196;10.924;2022-08-18T13:25:58;10.67;;;8.63;;
8421;SDS011;4248;48.196;10.924;2022-08-18T13:28:25;11.27;;;8.90;;
8421;SDS011;4248;48.196;10.924;2022-08-18T13:30:52;12.80;;;7.90;;
8421;SDS011;4248;48.196;10.924;2022-08-18T13:33:18;12.47;;;8.37;;
8421;SDS011;4248;48.196;10.924;2022-08-18T13:35:44;13.87;;;9.30;;
8421;SDS011;4248;48.196;10.924;2022-08-18T13:38:11;14.23;;;9.20;;
8421;SDS011;4248;48.196;10.924;2022-08-18T13:40:38;11.53;;;7.63;;
8421;SDS011;4248;48.196;10.924;2022-08-18T13:43:04;14.33;;;10.23;;
8421;SDS011;4248;48.196;10.924;2022-08-18T13:45:32;13.57;;;8.37;;
8421;SDS011;4248;48.196;10.924;2022-08-18T13:47:58;15.20;;;8.60;;
8421;SDS011;4248;48.196;10.924;2022-08-18T13:50:24;12.37;;;7.90;;
8421;SDS011;4248;48.196;10.924;2022-08-18T13:52:50;11.67;;;8.13;;
8421;SDS011;4248;48.196;10.924;2022-08-18T13:55:17;10.47;;;8.90;;
8421;SDS011;4248;48.196;10.924;2022-08-18T13:57:43;14.77;;;8.60;;
8421;SDS011;4248;48.196;10.924;2022-08-18T14:00:13;10.57;;;7.90;;
8421;SDS011;4248;48.196;10.924;2022-08-18T14:02:45;14.50;;;10.07;;
8421;SDS011;4248;48.196;10.924;2022-08-18T14:05:12;12.90;;;8.43;;
8421;SDS011;4248;48.196;10.924;2022-08-18T14:07:38;8.80;;;6.80;;
8421;SDS011;4248;48.196;10.924;2022-08-18T14:10:04;10.70;;;8.47;;
8421;SDS011;4248;48.196;10.924;2022-08-18T14:12:33;11.43;;;8.90;;
8421;SDS011;4248;48.196;10.924;2022-08-18T14:15:01;12.97;;;8.50;;
8421;SDS011;4248;48.196;10.924;2022-08-18T14:17:30;12.73;;;8.80;;
8421;SDS011;4248;48.196;10.924;2022-08-18T14:19:57;11.40;;;8.67;;
8421;SDS011;4248;48.196;10.924;2022-08-18T14:22:41;10.60;;;8.07;;
8421;SDS011;4248;48.196;10.924;2022-08-18T14:25:26;12.03;;;8.17;;
8421;SDS011;4248;48.196;10.924;2022-08-18T14:28:10;15.87;;;8.60;;
8421;SDS011;4248;48.196;10.924;2022-08-18T14:30:36;12.53;;;7.90;;
8421;SDS011;4248;48.196;10.924;2022-08-18T14:33:04;10.57;;;8.70;;
8421;SDS011;4248;48.196;10.924;2022-08-18T14:35:31;15.33;;;9.10;;
8421;SDS011;4248;48.196;10.924;2022-08-18T14:37:58;16.63;;;10.33;;
8421;SDS011;4248;48.196;10.924;2022-08-18T14:40:25;10.70;;;8.03;;
8421;SDS011;4248;48.196;10.924;2022-08-18T14:42:57;11.20;;;8.20;;
8421;SDS011;4248;48.196;10.924;2022-08-18T14:45:23;14.83;;;9.20;;
8421;SDS011;4248;48.196;10.924;2022-08-18T14:47:50;10.97;;;8.13;;
8421;SDS011;4248;48.196;10.924;2022-08-18T14:50:17;13.47;;;9.53;;
8421;SDS011;4248;48.196;10.924;2022-08-18T14:52:47;15.80;;;10.10;;
8421;SDS011;4248;48.196;10.924;2022-08-18T14:55:14;14.13;;;9.30;;
8421;SDS011;4248;48.196;10.924;2022-08-18T14:57:40;14.50;;;9.20;;
8421;SDS011;4248;48.196;10.924;2022-08-18T15:00:07;10.00;;;7.77;;
8421;SDS011;4248;48.196;10.924;2022-08-18T15:02:40;12.47;;;7.30;;
8421;SDS011;4248;48.196;10.924;2022-08-18T15:05:07;12.20;;;7.90;;
8421;SDS011;4248;48.196;10.924;2022-08-18T15:07:34;9.07;;;7.50;;
8421;SDS011;4248;48.196;10.924;2022-08-18T15:10:02;10.77;;;7.70;;
8421;SDS011;4248;48.196;10.924;2022-08-18T15:12:33;9.43;;;7.50;;
8421;SDS011;4248;48.196;10.924;2022-08-18T15:14:59;10.20;;;7.43;;
8421;SDS011;4248;48.196;10.924;2022-08-18T15:17:25;13.10;;;7.90;;
8421;SDS011;4248;48.196;10.924;2022-08-18T15:19:51;10.53;;;7.70;;
8421;SDS011;4248;48.196;10.924;2022-08-18T15:22:18;12.07;;;8.37;;
8421;SDS011;4248;48.196;10.924;2022-08-18T15:25:03;11.67;;;7.70;;
8421;SDS011;4248;48.196;10.924;2022-08-18T15:27:49;10.40;;;7.20;;
8421;SDS011;4248;48.196;10.924;2022-08-18T15:30:16;11.47;;;7.73;;
8421;SDS011;4248;48.196;10.924;2022-08-18T15:32:42;17.40;;;8.90;;
8421;SDS011;4248;48.196;10.924;2022-08-18T15:35:09;9.87;;;7.73;;
8421;SDS011;4248;48.196;10.924;2022-08-18T15:37:36;10.30;;;7.90;;
8421;SDS011;4248;48.196;10.924;2022-08-18T15:40:11;12.70;;;9.07;;
8421;SDS011;4248;48.196;10.924;2022-08-18T15:42:47;13.73;;;8.80;;
8421;SDS011;4248;48.196;10.924;2022-08-18T15:45:24;10.47;;;7.87;;
8421;SDS011;4248;48.196;10.924;2022-08-18T15:47:51;10.87;;;8.17;;
8421;SDS011;4248;48.196;10.924;2022-08-18T15:50:18;11.63;;;7.97;;
8421;SDS011;4248;48.196;10.924;2022-08-18T15:52:48;13.17;;;9.40;;
8421;SDS011;4248;48.196;10.924;2022-08-18T15:55:16;14.63;;;9.00;;
8421;SDS011;4248;48.196;10.924;2022-08-18T15:57:43;10.23;;;7.70;;
8421;SDS011;4248;48.196;10.924;2022-08-18T16:00:10;12.77;;;9.30;;
8421;SDS011;4248;48.196;10.924;2022-08-18T16:02:37;10.80;;;8.37;;
8421;SDS011;4248;48.196;10.924;2022-08-18T16:05:04;14.03;;;8.03;;
8421;SDS011;4248;48.196;10.924;2022-08-18T16:07:31;9.83;;;8.30;;
8421;SDS011;4248;48.196;10.924;2022-08-18T16:09:56;12.50;;;9.67;;
8421;SDS011;4248;48.196;10.924;2022-08-18T16:12:22;11.80;;;8.87;;
8421;SDS011;4248;48.196;10.924;2022-08-18T16:14:48;18.23;;;8.83;;
8421;SDS011;4248;48.196;10.924;2022-08-18T16:17:16;12.10;;;8.93;;
8421;SDS011;4248;48.196;10.924;2022-08-18T16:19:43;12.13;;;8.80;;
8421;SDS011;4248;48.196;10.924;2022-08-18T16:22:09;14.20;;;8.97;;
8421;SDS011;4248;48.196;10.924;2022-08-18T16:24:35;15.07;;;9.10;;
8421;SDS011;4248;48.196;10.924;2022-08-18T16:27:00;14.40;;;9.10;;
8421;SDS011;4248;48.196;10.924;2022-08-18T16:29:26;25.23;;;10.30;;
8421;SDS011;4248;48.196;10.924;2022-08-18T16:31:52;28.03;;;11.63;;
8421;SDS011;4248;48.196;10.924;2022-08-18T16:34:17;25.30;;;13.47;;
8421;SDS011;4248;48.196;10.924;2022-08-18T16:36:43;28.37;;;12.90;;
8421;SDS011;4248;48.196;10.924;2022-08-18T16:39:09;24.53;;;13.00;;
8421;SDS011;4248;48.196;10.924;2022-08-18T16:41:35;28.50;;;15.47;;
8421;SDS011;4248;48.196;10.924;2022-08-18T16:44:01;26.23;;;15.03;;
8421;SDS011;4248;48.196;10.924;2022-08-18T16:46:27;26.10;;;16.03;;
8421;SDS011;4248;48.196;10.924;2022-08-18T16:48:54;23.13;;;15.17;;
8421;SDS011;4248;48.196;10.924;2022-08-18T16:51:21;20.77;;;14.30;;
8421;SDS011;4248;48.196;10.924;2022-08-18T16:53:49;21.17;;;14.20;;
8421;SDS011;4248;48.196;10.924;2022-08-18T16:56:24;22.20;;;15.67;;
8421;SDS011;4248;48.196;10.924;2022-08-18T16:58:52;21.70;;;15.80;;
8421;SDS011;4248;48.196;10.924;2022-08-18T17:01:36;21.27;;;15.90;;
8421;SDS011;4248;48.196;10.924;2022-08-18T17:04:23;21.20;;;15.77;;
8421;SDS011;4248;48.196;10.924;2022-08-18T17:06:52;23.80;;;15.77;;
8421;SDS011;4248;48.196;10.924;2022-08-18T17:09:18;23.03;;;15.23;;
8421;SDS011;4248;48.196;10.924;2022-08-18T17:11:45;21.43;;;15.80;;
8421;SDS011;4248;48.196;10.924;2022-08-18T17:14:12;22.57;;;15.80;;
8421;SDS011;4248;48.196;10.924;2022-08-18T17:16:38;24.40;;;17.27;;
8421;SDS011;4248;48.196;10.924;2022-08-18T17:19:05;20.57;;;16.30;;
8421;SDS011;4248;48.196;10.924;2022-08-18T17:21:32;23.17;;;17.97;;
8421;SDS011;4248;48.196;10.924;2022-08-18T17:23:59;25.90;;;17.87;;
8421;SDS011;4248;48.196;10.924;2022-08-18T17:29:14;24.20;;;17.90;;
8421;SDS011;4248;48.196;10.924;2022-08-18T17:31:52;26.73;;;19.70;;
8421;SDS011;4248;48.196;10.924;2022-08-18T17:34:29;23.33;;;18.50;;
8421;SDS011;4248;48.196;10.924;2022-08-18T17:37:00;24.37;;;17.93;;